Time;durP1;ratioP1;P1;durP2;ratioP2;P2;SDS_P1;SDS_P2;PMS_P1;PMS_P2;Temp;Humidity;BMP_temperature;BMP_pressure;BME280_temperature;BME280_humidity;BME280_pressure;Samples;Min_cycle;Max_cycle;Signal;HPM_P1;HPM_P2
2023/02/28 00:00:13;;;;;;;2.78;1.20;;;2.90;38.10;;;;;;2333239;54;21009;-70
2023/02/28 00:02:40;;;;;;;2.58;1.20;;;2.90;38.10;;;;;;2332916;54;20940;-71
2023/02/28 00:05:10;;;;;;;2.87;1.27;;;2.90;38.20;;;;;;2391742;53;20956;-71
2023/02/28 00:07:37;;;;;;;2.53;1.00;;;2.80;38.70;;;;;;2458517;53;21034;-71
2023/02/28 00:10:07;;;;;;;2.20;1.10;;;2.80;38.20;;;;;;2328939;54;20956;-70
2023/02/28 00:12:36;;;;;;;4.35;1.20;;;2.80;38.30;;;;;;2552661;53;21016;-71
2023/02/28 00:15:06;;;;;;;2.03;1.05;;;2.70;38.30;;;;;;2332958;54;20969;-71
2023/02/28 00:17:32;;;;;;;2.80;1.12;;;2.70;38.40;;;;;;2331965;54;21902;-70
2023/02/28 00:20:11;;;;;;;3.95;1.60;;;2.70;38.40;;;;;;2332387;54;21031;-71
2023/02/28 00:22:42;;;;;;;4.78;1.30;;;2.70;38.50;;;;;;2333501;54;20957;-71
2023/02/28 00:25:08;;;;;;;3.03;1.30;;;2.60;38.50;;;;;;2309564;54;21000;-71
2023/02/28 00:27:35;;;;;;;3.65;1.30;;;2.60;38.50;;;;;;2333265;54;21088;-68
2023/02/28 00:30:02;;;;;;;3.40;1.55;;;2.60;38.60;;;;;;2333266;54;20928;-70
2023/02/28 00:32:29;;;;;;;6.07;1.48;;;2.60;38.70;;;;;;2333468;54;21041;-71
2023/02/28 00:34:56;;;;;;;3.17;1.30;;;2.50;38.70;;;;;;2333185;54;20945;-72
2023/02/28 00:37:22;;;;;;;3.47;1.35;;;2.50;38.80;;;;;;2333538;54;20921;-70
2023/02/28 00:39:49;;;;;;;2.87;1.17;;;2.50;38.90;;;;;;2379106;53;20968;-70
2023/02/28 00:42:15;;;;;;;6.43;1.40;;;2.50;38.90;;;;;;2365324;53;21252;-72
2023/02/28 00:44:41;;;;;;;3.58;1.15;;;2.50;39.00;;;;;;2332070;54;20947;-71
2023/02/28 00:47:08;;;;;;;3.12;1.00;;;2.40;39.00;;;;;;2333384;54;20989;-71
2023/02/28 00:49:34;;;;;;;3.37;1.27;;;2.40;39.00;;;;;;2333384;54;21001;-71
2023/02/28 00:52:03;;;;;;;2.80;1.30;;;2.40;39.00;;;;;;2333374;54;20969;-70
2023/02/28 00:54:30;;;;;;;3.78;1.48;;;2.40;39.10;;;;;;2441219;53;21008;-71
2023/02/28 00:56:56;;;;;;;2.80;1.20;;;2.40;39.20;;;;;;2333269;54;21024;-70
2023/02/28 00:59:22;;;;;;;3.97;1.42;;;2.40;39.20;;;;;;2333022;54;20968;-71
2023/02/28 01:01:49;;;;;;;2.50;1.02;;;2.40;39.30;;;;;;2334000;54;21032;-70
2023/02/28 01:04:15;;;;;;;3.65;1.30;;;2.40;39.30;;;;;;2567596;53;20924;-70
2023/02/28 01:06:41;;;;;;;3.00;1.30;;;2.40;39.40;;;;;;2333274;54;21004;-71
2023/02/28 01:09:08;;;;;;;3.37;1.50;;;2.40;39.30;;;;;;2396985;53;21805;-70
2023/02/28 01:11:34;;;;;;;3.20;1.23;;;2.40;39.40;;;;;;2577615;53;20932;-71
2023/02/28 01:14:00;;;;;;;3.37;1.25;;;2.40;39.40;;;;;;2332611;54;21464;-70
2023/02/28 01:16:28;;;;;;;2.87;1.12;;;2.40;39.50;;;;;;2333083;54;20994;-71
2023/02/28 01:18:55;;;;;;;3.58;1.40;;;2.40;39.50;;;;;;2412256;53;20940;-71
2023/02/28 01:21:21;;;;;;;3.28;1.30;;;2.40;39.50;;;;;;2332991;54;20921;-71
2023/02/28 01:23:47;;;;;;;3.40;1.52;;;2.40;39.60;;;;;;2332726;54;20984;-69
2023/02/28 01:26:18;;;;;;;3.42;1.33;;;2.40;39.60;;;;;;2423692;53;20919;-71
2023/02/28 01:28:44;;;;;;;2.83;1.35;;;2.40;39.70;;;;;;2396426;53;21480;-71
2023/02/28 01:31:11;;;;;;;3.30;1.42;;;2.40;39.80;;;;;;2524135;53;20965;-70
2023/02/28 01:33:37;;;;;;;3.50;1.40;;;2.40;39.80;;;;;;2333148;54;21003;-71
2023/02/28 01:36:17;;;;;;;2.83;1.25;;;2.40;39.80;;;;;;2329774;54;20929;-71
2023/02/28 01:38:44;;;;;;;3.20;1.25;;;2.50;40.00;;;;;;2572683;53;20969;-70
2023/02/28 01:41:16;;;;;;;2.42;1.17;;;2.50;40.00;;;;;;2423251;53;21036;-70
2023/02/28 01:43:54;;;;;;;3.17;1.30;;;2.50;40.00;;;;;;2333177;54;20955;-71
2023/02/28 01:46:20;;;;;;;3.65;1.35;;;2.50;40.10;;;;;;2332669;54;21043;-71
2023/02/28 01:50:18;;;;;;;6.95;1.75;;;2.60;40.10;;;;;;2333066;54;21385;-71
2023/02/28 01:52:45;;;;;;;3.05;1.20;;;2.60;40.40;;;;;;2333356;54;21731;-71
2023/02/28 01:55:14;;;;;;;3.65;1.30;;;2.70;40.30;;;;;;2378640;53;21923;-70
2023/02/28 01:57:45;;;;;;;3.28;1.30;;;2.70;40.30;;;;;;2576899;53;20944;-69
2023/02/28 02:00:16;;;;;;;3.10;1.35;;;2.70;40.30;;;;;;2332624;54;21421;-70
2023/02/28 02:02:43;;;;;;;3.85;1.52;;;2.70;40.40;;;;;;2550953;53;20952;-71
2023/02/28 02:05:15;;;;;;;4.97;1.40;;;2.70;40.40;;;;;;2332045;54;20957;-71
2023/02/28 02:07:43;;;;;;;2.42;1.12;;;2.80;40.50;;;;;;2332302;54;21130;-70
2023/02/28 02:10:21;;;;;;;4.75;1.37;;;2.80;40.50;;;;;;2332323;54;20925;-71
2023/02/28 02:14:46;;;;;;;3.87;1.45;;;2.80;40.60;;;;;;2333291;54;21429;-70
2023/02/28 02:17:54;;;;;;;3.37;1.40;;;2.90;40.60;;;;;;2332323;54;20961;-71
2023/02/28 02:20:38;;;;;;;3.25;1.23;;;2.90;40.50;;;;;;2332607;54;20952;-69
2023/02/28 02:24:41;;;;;;;3.60;1.40;;;2.90;40.50;;;;;;2332672;54;20972;-71
2023/02/28 02:33:23;;;;;;;3.17;1.40;;;3.00;40.60;;;;;;2378806;53;20972;-70
2023/02/28 02:36:37;;;;;;;2.08;0.90;;;3.00;40.60;;;;;;2331912;54;20944;-69
2023/02/28 02:39:14;;;;;;;3.60;1.37;;;3.10;40.60;;;;;;2330611;54;20924;-71
2023/02/28 02:41:53;;;;;;;5.45;1.65;;;3.10;40.60;;;;;;2333660;54;20964;-71
2023/02/28 02:44:24;;;;;;;3.50;1.55;;;3.10;40.70;;;;;;2331188;54;20929;-70
2023/02/28 02:46:53;;;;;;;4.82;1.30;;;3.20;40.90;;;;;;2331852;54;21021;-71
2023/02/28 02:49:30;;;;;;;4.12;1.40;;;3.20;40.90;;;;;;2331266;54;20940;-69
2023/02/28 02:51:57;;;;;;;3.33;1.40;;;3.20;41.00;;;;;;2331207;54;21020;-71
2023/02/28 02:54:29;;;;;;;3.72;1.65;;;3.20;40.90;;;;;;2331294;54;21032;-71
2023/02/28 02:57:00;;;;;;;;;;;3.20;41.00;;;;;;2334943;54;20956;-71
2023/02/28 02:59:28;;;;;;;3.45;1.33;;;3.30;41.30;;;;;;2331427;54;20059;-70
2023/02/28 03:01:56;;;;;;;3.30;1.52;;;3.30;41.00;;;;;;2386033;53;20940;-69
2023/02/28 03:04:24;;;;;;;3.72;1.45;;;3.30;41.00;;;;;;2332906;54;21465;-71
2023/02/28 03:06:54;;;;;;;3.30;1.55;;;3.30;41.10;;;;;;2329088;54;21008;-71
2023/02/28 03:09:24;;;;;;;4.07;1.55;;;3.40;41.20;;;;;;2331354;54;21486;-71
2023/02/28 03:11:51;;;;;;;3.83;1.60;;;3.40;41.10;;;;;;2401748;53;21711;-71
2023/02/28 03:14:55;;;;;;;2.62;1.17;;;3.40;41.20;;;;;;2335289;53;21312;-70
2023/02/28 03:18:07;;;;;;;2.95;1.42;;;3.40;41.20;;;;;;2521407;53;20932;-70
2023/02/28 03:20:46;;;;;;;3.65;1.48;;;3.40;41.20;;;;;;2331829;54;20997;-71
2023/02/28 03:23:21;;;;;;;4.55;1.60;;;3.50;41.30;;;;;;2375451;53;20993;-71
2023/02/28 03:26:00;;;;;;;5.22;1.33;;;3.50;41.30;;;;;;2576356;53;20933;-70
2023/02/28 03:28:58;;;;;;;4.57;1.45;;;3.50;41.30;;;;;;2331295;54;20981;-71
2023/02/28 03:31:36;;;;;;;4.20;1.70;;;3.50;41.30;;;;;;2330685;54;20924;-71
2023/02/28 03:34:19;;;;;;;3.12;1.40;;;3.50;41.20;;;;;;2547232;53;20952;-70
2023/02/28 03:36:48;;;;;;;3.53;1.70;;;3.50;41.30;;;;;;2333146;54;20937;-71
2023/02/28 03:39:20;;;;;;;3.53;1.37;;;3.50;41.20;;;;;;2332623;54;21794;-71
2023/02/28 03:42:10;;;;;;;3.70;1.80;;;3.50;41.80;;;;;;2333052;54;21445;-71
2023/02/28 03:44:42;;;;;;;3.85;1.60;;;3.50;41.30;;;;;;2338901;53;21307;-71
2023/02/28 03:47:14;;;;;;;4.20;1.70;;;3.50;41.20;;;;;;2332536;54;20925;-71
2023/02/28 03:49:45;;;;;;;3.37;1.70;;;3.50;41.30;;;;;;2332909;54;20945;-71
2023/02/28 03:52:11;;;;;;;3.83;1.73;;;3.50;41.30;;;;;;2332061;53;20935;-71
2023/02/28 03:54:44;;;;;;;5.32;1.70;;;3.50;41.30;;;;;;2332438;54;20957;-71
2023/02/28 03:57:27;;;;;;;4.28;1.70;;;3.50;41.40;;;;;;2332517;54;20996;-71
2023/02/28 03:59:59;;;;;;;4.07;1.90;;;3.50;41.50;;;;;;2333232;54;20972;-71
2023/02/28 04:02:26;;;;;;;4.95;1.85;;;3.50;41.50;;;;;;2332994;53;20988;-71
2023/02/28 04:04:52;;;;;;;3.42;1.55;;;3.50;41.40;;;;;;2336983;53;20948;-70
2023/02/28 04:07:18;;;;;;;3.65;1.58;;;3.50;41.50;;;;;;2332343;54;20976;-71
2023/02/28 04:09:44;;;;;;;3.20;1.70;;;3.50;42.10;;;;;;2333024;54;21017;-71
2023/02/28 04:12:11;;;;;;;3.55;1.73;;;3.50;41.50;;;;;;2332509;54;20972;-71
2023/02/28 04:14:37;;;;;;;3.45;1.80;;;3.50;41.60;;;;;;2333179;54;21006;-72
2023/02/28 04:17:04;;;;;;;3.70;1.90;;;3.50;41.50;;;;;;2332793;54;21417;-71
2023/02/28 04:19:30;;;;;;;3.65;1.80;;;3.50;41.60;;;;;;2332604;54;20995;-71
2023/02/28 04:21:56;;;;;;;4.05;1.83;;;3.50;41.60;;;;;;2333111;54;20968;-71
2023/02/28 04:24:25;;;;;;;5.20;1.73;;;3.50;41.70;;;;;;2332640;54;20912;-71
2023/02/28 04:26:53;;;;;;;3.87;1.98;;;3.50;41.70;;;;;;2332871;54;21437;-71
2023/02/28 04:29:30;;;;;;;3.95;1.85;;;3.50;41.80;;;;;;2331736;54;21028;-71
2023/02/28 04:31:59;;;;;;;4.72;1.73;;;3.50;41.90;;;;;;2325910;54;20968;-71
2023/02/28 04:34:26;;;;;;;5.05;1.70;;;3.50;41.90;;;;;;2317474;54;21004;-71
2023/02/28 04:36:54;;;;;;;4.30;1.80;;;3.50;41.90;;;;;;2332664;53;20944;-71
2023/02/28 04:39:37;;;;;;;3.65;1.85;;;3.50;41.90;;;;;;2317801;54;20944;-71
2023/02/28 04:42:03;;;;;;;4.15;2.05;;;3.50;41.90;;;;;;2316872;54;20944;-71
2023/02/28 04:44:30;;;;;;;3.28;1.55;;;3.50;41.90;;;;;;2318175;54;20952;-71
2023/02/28 04:46:56;;;;;;;4.10;1.67;;;3.50;42.00;;;;;;2338999;53;20988;-70
2023/02/28 04:49:23;;;;;;;3.47;1.80;;;3.50;42.00;;;;;;2317258;54;20964;-71
2023/02/28 04:51:49;;;;;;;4.07;1.75;;;3.50;42.00;;;;;;2318376;54;20916;-71
2023/02/28 04:54:17;;;;;;;3.55;1.70;;;3.50;42.10;;;;;;2518766;53;20977;-71
2023/02/28 04:56:44;;;;;;;3.83;1.90;;;3.50;42.10;;;;;;2295722;54;21466;-71
2023/02/28 04:59:10;;;;;;;4.35;2.20;;;3.50;42.00;;;;;;2317721;54;21487;-71
2023/02/28 05:01:37;;;;;;;4.75;1.80;;;3.50;42.10;;;;;;2318188;54;21355;-71
2023/02/28 05:04:04;;;;;;;3.37;1.75;;;3.50;42.10;;;;;;2382588;53;20952;-71
2023/02/28 05:06:32;;;;;;;4.22;1.90;;;3.50;42.10;;;;;;2519177;53;21079;-71
2023/02/28 05:08:58;;;;;;;5.57;2.10;;;3.50;42.10;;;;;;2313624;54;21367;-71
2023/02/28 05:11:26;;;;;;;4.00;1.87;;;3.50;42.10;;;;;;2313006;54;20945;-71
2023/02/28 05:13:53;;;;;;;4.75;2.00;;;3.50;42.20;;;;;;2315017;53;21079;-72
2023/02/28 05:16:20;;;;;;;4.10;2.10;;;3.50;42.20;;;;;;2313072;54;21079;-72
2023/02/28 05:18:46;;;;;;;3.80;1.90;;;3.50;42.20;;;;;;2314167;54;21037;-71
2023/02/28 05:21:28;;;;;;;4.28;2.00;;;3.50;42.20;;;;;;2313997;54;20921;-71
2023/02/28 05:23:56;;;;;;;;;;;3.50;42.30;;;;;;2318642;54;21004;-71
2023/02/28 05:26:22;;;;;;;3.45;1.60;;;3.50;42.30;;;;;;2350200;53;20126;-71
2023/02/28 05:28:48;;;;;;;3.40;1.75;;;3.50;42.10;;;;;;2395805;53;21095;-71
2023/02/28 05:31:15;;;;;;;6.82;2.60;;;3.40;42.10;;;;;;2403191;53;21474;-72
2023/02/28 05:33:41;;;;;;;4.85;2.22;;;3.40;42.10;;;;;;2319250;53;22043;-71
2023/02/28 05:36:08;;;;;;;5.05;2.30;;;3.40;42.20;;;;;;2360218;53;21080;-71
2023/02/28 05:38:34;;;;;;;3.85;1.90;;;3.40;42.20;;;;;;2321225;53;21317;-71
2023/02/28 05:41:07;;;;;;;5.03;2.00;;;3.40;42.20;;;;;;2313535;54;21008;-71
2023/02/28 05:43:34;;;;;;;3.83;1.98;;;3.30;42.20;;;;;;2312812;54;20982;-71
2023/02/28 05:46:09;;;;;;;4.32;2.00;;;3.30;42.20;;;;;;2542696;53;20965;-72
2023/02/28 05:48:36;;;;;;;4.25;1.90;;;3.30;42.30;;;;;;2313291;54;21233;-71
2023/02/28 05:51:02;;;;;;;3.87;1.92;;;3.30;42.30;;;;;;2314198;54;20976;-69
2023/02/28 05:53:29;;;;;;;5.07;2.25;;;3.30;42.40;;;;;;2313392;54;20933;-69
2023/02/28 05:56:20;;;;;;;4.35;2.10;;;3.30;42.40;;;;;;2496319;53;21264;-70
2023/02/28 05:58:46;;;;;;;4.10;1.90;;;3.30;42.60;;;;;;2321473;53;21482;-71
2023/02/28 06:01:31;;;;;;;5.70;2.42;;;3.30;42.50;;;;;;2379488;53;21056;-71
2023/02/28 06:03:59;;;;;;;5.32;1.98;;;3.20;42.50;;;;;;2315212;54;21080;-71
2023/02/28 06:06:26;;;;;;;4.62;2.25;;;3.20;42.50;;;;;;2315068;54;21004;-71
2023/02/28 06:08:53;;;;;;;5.72;2.08;;;3.20;42.50;;;;;;2315741;54;21008;-71
2023/02/28 06:11:20;;;;;;;4.47;2.15;;;3.20;42.60;;;;;;2313927;54;20936;-71
2023/02/28 06:13:46;;;;;;;5.57;2.55;;;3.20;43.20;;;;;;2314060;54;20987;-71
2023/02/28 06:16:12;;;;;;;4.15;2.10;;;3.20;42.60;;;;;;2377189;53;21297;-71
2023/02/28 06:18:39;;;;;;;4.97;2.30;;;3.20;42.70;;;;;;2313473;54;21844;-71
2023/02/28 06:21:06;;;;;;;4.87;2.40;;;3.20;42.70;;;;;;2313081;54;22002;-71
2023/02/28 06:23:32;;;;;;;5.03;2.47;;;3.20;42.80;;;;;;2475948;53;20941;-72
2023/02/28 06:25:58;;;;;;;4.55;2.30;;;3.20;42.80;;;;;;2371074;53;20976;-71
2023/02/28 06:28:25;;;;;;;3.95;2.25;;;3.20;42.80;;;;;;2446297;53;21072;-71
2023/02/28 06:30:52;;;;;;;5.82;2.90;;;3.20;42.80;;;;;;2314026;54;21361;-71
2023/02/28 06:33:18;;;;;;;4.32;2.00;;;3.20;42.90;;;;;;2504576;53;20940;-71
2023/02/28 06:35:46;;;;;;;4.25;2.20;;;3.20;42.90;;;;;;2350975;53;20932;-71
2023/02/28 06:38:12;;;;;;;5.45;2.37;;;3.20;42.90;;;;;;2312963;54;20944;-71
2023/02/28 06:40:38;;;;;;;4.60;2.60;;;3.20;42.90;;;;;;2313621;54;20972;-71
2023/02/28 06:43:05;;;;;;;5.03;2.42;;;3.20;43.00;;;;;;2313759;54;20968;-71
2023/02/28 06:45:31;;;;;;;5.35;2.75;;;3.20;43.00;;;;;;2313381;54;20917;-71
2023/02/28 06:47:57;;;;;;;3.70;2.25;;;3.20;43.00;;;;;;2313850;54;20913;-72
2023/02/28 06:50:24;;;;;;;5.62;2.50;;;3.20;43.10;;;;;;2313023;54;22115;-71
2023/02/28 06:52:53;;;;;;;4.78;2.60;;;3.30;43.10;;;;;;2313395;54;22134;-71
2023/02/28 06:55:19;;;;;;;4.50;2.67;;;3.30;43.20;;;;;;2313062;54;20917;-72
2023/02/28 06:57:46;;;;;;;4.97;2.45;;;3.30;43.20;;;;;;2314117;54;21375;-71
2023/02/28 07:00:13;;;;;;;4.03;2.17;;;3.30;43.20;;;;;;2313222;53;21572;-71
2023/02/28 07:02:39;;;;;;;4.32;2.12;;;3.30;43.30;;;;;;2315021;53;22636;-71
2023/02/28 07:05:06;;;;;;;5.20;2.83;;;3.30;43.30;;;;;;2313053;54;20957;-71
2023/02/28 07:07:33;;;;;;;5.30;2.60;;;3.30;43.30;;;;;;2355407;53;20945;-71
2023/02/28 07:09:59;;;;;;;4.95;2.50;;;3.30;43.30;;;;;;2444349;53;21008;-71
2023/02/28 07:12:25;;;;;;;5.18;2.47;;;3.30;43.40;;;;;;2312753;54;21114;-71
2023/02/28 07:14:52;;;;;;;4.75;2.28;;;3.40;43.50;;;;;;2323233;53;22044;-71
2023/02/28 07:17:18;;;;;;;5.87;2.30;;;3.40;43.50;;;;;;2357390;53;20936;-71
2023/02/28 07:19:44;;;;;;;4.35;2.22;;;3.40;43.50;;;;;;2314195;54;21039;-71
2023/02/28 07:22:10;;;;;;;4.57;2.30;;;3.40;43.60;;;;;;2313388;54;20992;-71
2023/02/28 07:24:38;;;;;;;3.90;2.47;;;3.40;43.60;;;;;;2313224;54;21822;-71
2023/02/28 07:27:04;;;;;;;4.20;2.22;;;3.40;43.60;;;;;;2313704;54;20949;-72
2023/02/28 07:29:30;;;;;;;4.75;2.10;;;3.50;43.70;;;;;;2312770;53;21279;-71
2023/02/28 07:31:57;;;;;;;4.37;2.40;;;3.50;43.60;;;;;;2312767;54;20995;-71
2023/02/28 07:34:23;;;;;;;5.62;2.60;;;3.50;43.70;;;;;;2312878;54;20953;-71
2023/02/28 07:36:53;;;;;;;6.03;3.25;;;3.50;43.70;;;;;;2314021;54;20953;-71
2023/02/28 07:39:20;;;;;;;5.72;2.62;;;3.60;43.80;;;;;;2313281;54;21568;-71
2023/02/28 07:41:46;;;;;;;3.97;2.30;;;3.60;43.80;;;;;;2467430;53;21058;-72
2023/02/28 07:44:13;;;;;;;5.60;2.75;;;3.60;43.80;;;;;;2309467;54;22288;-71
2023/02/28 07:46:39;;;;;;;4.07;2.53;;;3.60;43.80;;;;;;2313711;54;21132;-72
2023/02/28 07:49:06;;;;;;;5.10;2.83;;;3.60;43.90;;;;;;2314040;54;22217;-71
2023/02/28 07:51:32;;;;;;;6.55;2.70;;;3.70;44.00;;;;;;2344863;53;21348;-71
2023/02/28 07:53:59;;;;;;;4.70;2.60;;;3.70;44.00;;;;;;2313079;53;20964;-71
2023/02/28 07:56:25;;;;;;;5.35;2.75;;;3.70;44.00;;;;;;2312359;54;20948;-71
2023/02/28 07:58:51;;;;;;;4.90;2.37;;;3.70;44.00;;;;;;2312918;54;21390;-72
2023/02/28 08:01:19;;;;;;;5.15;2.80;;;3.80;44.20;;;;;;2312263;54;21396;-71
2023/02/28 08:03:45;;;;;;;5.12;2.80;;;3.80;44.20;;;;;;2320332;53;20937;-72
2023/02/28 08:06:17;;;;;;;4.45;2.75;;;3.80;44.20;;;;;;2313426;54;22014;-72
2023/02/28 08:08:44;;;;;;;5.83;2.97;;;3.90;44.30;;;;;;2314120;54;21411;-72
2023/02/28 08:11:10;;;;;;;5.05;2.60;;;3.90;44.30;;;;;;2313588;54;21016;-71
2023/02/28 08:13:36;;;;;;;5.32;2.80;;;3.90;44.20;;;;;;2313634;54;21143;-71
2023/02/28 08:16:03;;;;;;;5.37;2.92;;;4.00;44.20;;;;;;2313982;54;20969;-72
2023/02/28 08:18:29;;;;;;;6.15;3.03;;;4.00;44.20;;;;;;2313330;54;20913;-71
2023/02/28 08:20:56;;;;;;;5.30;2.60;;;4.00;44.30;;;;;;2313216;54;20952;-72
2023/02/28 08:23:22;;;;;;;7.82;3.28;;;4.10;44.40;;;;;;2358457;53;21127;-72
2023/02/28 08:25:55;;;;;;;4.82;2.65;;;4.10;44.40;;;;;;2313907;54;20979;-72
2023/02/28 08:28:22;;;;;;;5.10;2.85;;;4.10;44.50;;;;;;2313099;54;21052;-72
2023/02/28 08:30:50;;;;;;;4.65;2.62;;;4.20;44.50;;;;;;2291181;54;21060;-72
2023/02/28 08:33:16;;;;;;;5.55;2.90;;;4.20;44.40;;;;;;2320045;53;20953;-72
2023/02/28 08:35:42;;;;;;;5.62;2.65;;;4.20;44.50;;;;;;2325825;53;21548;-71
2023/02/28 08:38:09;;;;;;;5.55;3.12;;;4.30;44.50;;;;;;2333907;53;20968;-72
2023/02/28 08:40:35;;;;;;;5.22;2.80;;;4.30;44.40;;;;;;2314531;54;21087;-71
2023/02/28 08:43:01;;;;;;;6.70;3.40;;;4.30;44.30;;;;;;2315119;54;21115;-72
2023/02/28 08:45:27;;;;;;;6.20;3.37;;;4.30;44.30;;;;;;2313854;53;20933;-72
2023/02/28 08:47:55;;;;;;;8.98;4.68;;;4.40;44.30;;;;;;2539205;53;22314;-72
2023/02/28 08:50:21;;;;;;;6.47;3.47;;;4.30;44.20;;;;;;2313957;54;20979;-72
2023/02/28 08:52:47;;;;;;;6.75;3.40;;;4.30;44.20;;;;;;2368467;53;21056;-72
2023/02/28 08:55:14;;;;;;;8.70;3.65;;;4.30;44.20;;;;;;2314406;54;20948;-72
2023/02/28 08:57:40;;;;;;;6.43;3.55;;;4.40;44.30;;;;;;2337932;53;21092;-71
2023/02/28 09:00:07;;;;;;;5.95;3.35;;;4.40;44.30;;;;;;2337666;53;21009;-72
2023/02/28 09:02:33;;;;;;;6.53;3.25;;;4.40;44.90;;;;;;2315104;54;20956;-72
2023/02/28 09:05:00;;;;;;;5.78;3.00;;;4.30;44.30;;;;;;2352733;53;20949;-71
2023/02/28 09:07:26;;;;;;;5.30;3.20;;;4.40;44.40;;;;;;2342211;53;21032;-72
2023/02/28 09:09:55;;;;;;;6.45;3.55;;;4.40;44.40;;;;;;2360914;53;20980;-72
2023/02/28 09:12:22;;;;;;;6.82;3.12;;;4.40;44.40;;;;;;2556552;53;20985;-72
2023/02/28 09:14:48;;;;;;;5.20;2.75;;;4.40;44.30;;;;;;2315740;54;21466;-71
2023/02/28 09:17:15;;;;;;;5.07;2.67;;;4.40;44.30;;;;;;2324608;53;21355;-72
2023/02/28 09:19:42;;;;;;;5.62;3.15;;;4.40;44.40;;;;;;2315476;54;20952;-71
2023/02/28 09:22:09;;;;;;;7.03;3.03;;;4.40;44.40;;;;;;2315288;54;21098;-72
2023/02/28 09:24:36;;;;;;;5.70;3.08;;;4.50;44.60;;;;;;2318265;53;21026;-72
2023/02/28 09:27:03;;;;;;;6.43;3.30;;;4.50;44.60;;;;;;2311649;54;21630;-72
2023/02/28 09:29:32;;;;;;;6.32;3.20;;;4.50;44.60;;;;;;2313454;54;21078;-72
2023/02/28 09:32:01;;;;;;;6.72;3.50;;;4.50;44.60;;;;;;2320648;53;20924;-71
2023/02/28 09:34:28;;;;;;;7.15;3.65;;;4.50;44.60;;;;;;2314706;54;20988;-72
2023/02/28 09:36:54;;;;;;;6.55;3.47;;;4.60;44.60;;;;;;2320657;53;22204;-72
2023/02/28 09:39:21;;;;;;;6.60;3.42;;;4.60;44.60;;;;;;2313375;54;20940;-72
2023/02/28 09:41:52;;;;;;;5.60;3.20;;;4.60;44.50;;;;;;2324752;53;20947;-72
2023/02/28 09:44:38;;;;;;;8.35;4.03;;;4.60;44.50;;;;;;2312451;53;20980;-72
2023/02/28 09:47:33;;;;;;;8.13;4.35;;;4.60;44.70;;;;;;2315289;54;20936;-72
2023/02/28 09:50:07;;;;;;;7.90;3.67;;;4.70;44.90;;;;;;2314939;54;20940;-71
2023/02/28 09:52:34;;;;;;;6.55;3.70;;;4.70;44.80;;;;;;2332618;53;20932;-72
2023/02/28 09:55:24;;;;;;;7.20;3.50;;;4.70;44.70;;;;;;2485142;53;20966;-72
2023/02/28 09:57:52;;;;;;;5.93;3.28;;;4.70;44.90;;;;;;2318011;53;20916;-72
2023/02/28 10:00:40;;;;;;;6.72;3.53;;;4.70;44.70;;;;;;2323069;53;20972;-72
2023/02/28 10:03:29;;;;;;;7.18;3.25;;;4.80;44.80;;;;;;2344635;53;21068;-72
2023/02/28 10:07:55;;;;;;;5.00;2.90;;;4.80;44.80;;;;;;2314787;54;21096;-72
2023/02/28 10:10:27;;;;;;;5.97;3.12;;;4.80;44.80;;;;;;2313903;54;21040;-71
2023/02/28 10:12:54;;;;;;;7.00;3.30;;;4.90;44.80;;;;;;2315424;54;20937;-72
2023/02/28 10:15:22;;;;;;;7.90;3.87;;;4.90;44.80;;;;;;2313591;54;20984;-72
2023/02/28 10:17:49;;;;;;;5.87;2.97;;;5.00;45.00;;;;;;2314379;54;21429;-72
2023/02/28 10:20:21;;;;;;;6.45;3.53;;;5.00;45.00;;;;;;2312521;54;20984;-72
2023/02/28 10:23:12;;;;;;;5.07;2.97;;;5.00;45.50;;;;;;2315520;54;21020;-71
2023/02/28 10:25:38;;;;;;;6.78;3.60;;;5.10;45.10;;;;;;2315203;54;21004;-72
2023/02/28 10:28:13;;;;;;;5.87;2.97;;;5.10;45.00;;;;;;2315750;54;21051;-72
2023/02/28 10:30:49;;;;;;;6.50;3.40;;;5.10;44.90;;;;;;2315540;54;20965;-72
2023/02/28 10:33:34;;;;;;;7.60;3.95;;;5.20;44.90;;;;;;2316469;54;20936;-72
2023/02/28 10:36:00;;;;;;;7.87;4.07;;;5.20;44.90;;;;;;2358168;53;20964;-72
2023/02/28 10:38:28;;;;;;;8.45;4.30;;;5.30;44.80;;;;;;2315571;54;20992;-72
2023/02/28 10:41:08;;;;;;;7.75;3.83;;;5.20;44.70;;;;;;2316118;54;20984;-72
2023/02/28 10:43:35;;;;;;;7.95;4.15;;;5.30;44.80;;;;;;2363338;53;21012;-72
2023/02/28 10:46:15;;;;;;;8.98;5.07;;;5.30;44.70;;;;;;2314796;54;21092;-72
2023/02/28 10:48:45;;;;;;;8.75;4.85;;;5.30;44.70;;;;;;2314723;54;21428;-72
2023/02/28 10:51:13;;;;;;;7.82;4.43;;;5.30;44.60;;;;;;2315002;54;21080;-72
2023/02/28 10:53:47;;;;;;;8.35;4.12;;;5.40;44.60;;;;;;2447621;53;21344;-73
2023/02/28 10:56:25;;;;;;;7.53;3.95;;;5.40;44.60;;;;;;2315002;54;21861;-72
2023/02/28 11:01:53;;;;;;;6.55;4.00;;;5.40;44.60;;;;;;2315048;54;20993;-72
2023/02/28 11:04:39;;;;;;;7.18;3.80;;;5.50;44.80;;;;;;2314569;54;21511;-73
2023/02/28 11:07:18;;;;;;;8.00;4.25;;;5.50;44.60;;;;;;2315225;54;21043;-72
2023/02/28 11:09:50;;;;;;;7.20;4.00;;;5.60;44.60;;;;;;2315799;54;20949;-72
2023/02/28 11:12:37;;;;;;;7.62;4.03;;;5.60;44.60;;;;;;2315441;54;22015;-72
2023/02/28 11:15:26;;;;;;;7.55;4.57;;;5.60;44.60;;;;;;2557915;53;21452;-72
2023/02/28 11:18:25;;;;;;;7.05;3.83;;;5.60;44.50;;;;;;2315818;54;21420;-71
2023/02/28 11:20:52;;;;;;;5.53;3.28;;;5.60;44.50;;;;;;2316433;54;21134;-72
2023/02/28 11:23:19;;;;;;;6.90;3.87;;;5.70;44.60;;;;;;2314447;54;20931;-70
2023/02/28 11:25:48;;;;;;;7.32;3.70;;;5.70;44.80;;;;;;2464667;53;21990;-72
2023/02/28 11:28:28;;;;;;;6.65;3.92;;;5.80;44.90;;;;;;2372518;53;21380;-72
2023/02/28 11:31:22;;;;;;;6.18;3.72;;;5.80;44.80;;;;;;2406089;53;20944;-72
2023/02/28 11:33:50;;;;;;;8.40;4.35;;;5.90;44.80;;;;;;2357829;53;20948;-73
2023/02/28 11:36:25;;;;;;;7.95;4.18;;;6.00;44.90;;;;;;2370482;53;20994;-72
2023/02/28 11:38:53;;;;;;;7.97;4.32;;;6.00;45.00;;;;;;2312533;54;22369;-72
2023/02/28 11:41:50;;;;;;;7.45;4.47;;;6.10;44.90;;;;;;2311559;54;21276;-73
2023/02/28 11:47:21;;;;;;;8.25;4.00;;;6.10;44.80;;;;;;2311584;54;22368;-73
2023/02/28 11:51:57;;;;;;;6.28;3.87;;;6.20;44.70;;;;;;2308747;54;20996;-72
2023/02/28 11:54:36;;;;;;;7.97;3.85;;;6.30;44.60;;;;;;2318371;53;20972;-72
2023/02/28 12:02:46;;;;;;;8.23;4.00;;;6.30;44.50;;;;;;2313257;54;20908;-71
2023/02/28 12:07:09;;;;;;;6.60;3.10;;;6.40;44.60;;;;;;2314357;54;21070;-72
2023/02/28 12:11:09;;;;;;;5.72;3.45;;;6.50;44.60;;;;;;2372803;53;20961;-73
2023/02/28 12:18:58;;;;;;;7.12;3.92;;;6.50;44.60;;;;;;2312246;54;21080;-72
2023/02/28 12:22:31;;;;;;;6.47;3.50;;;6.60;44.50;;;;;;2311284;54;20948;-72
2023/02/28 12:28:46;;;;;;;6.53;3.53;;;6.70;44.30;;;;;;2313396;54;20988;-72
2023/02/28 12:31:24;;;;;;;5.82;3.30;;;6.70;44.30;;;;;;2314319;54;20965;-73
2023/02/28 12:33:52;;;;;;;6.15;3.62;;;6.80;44.40;;;;;;2311884;54;20961;-73
2023/02/28 12:36:21;;;;;;;6.10;3.47;;;6.80;44.40;;;;;;2352520;53;20968;-72
2023/02/28 12:39:06;;;;;;;6.93;3.80;;;6.90;44.40;;;;;;2311660;54;21042;-72
2023/02/28 12:41:56;;;;;;;5.68;3.33;;;6.90;44.40;;;;;;2311061;53;21515;-73
2023/02/28 12:44:37;;;;;;;5.70;3.03;;;7.00;44.60;;;;;;2311227;54;20956;-72
2023/02/28 12:47:05;;;;;;;5.55;3.20;;;7.10;44.50;;;;;;2333580;53;20985;-72
2023/02/28 12:49:41;;;;;;;5.62;3.33;;;7.10;44.50;;;;;;2308455;54;20964;-73
2023/02/28 12:52:10;;;;;;;5.72;3.28;;;7.20;44.40;;;;;;2308536;54;21513;-72
2023/02/28 12:55:21;;;;;;;5.05;3.35;;;7.30;44.40;;;;;;2348782;53;21592;-72
2023/02/28 12:59:52;;;;;;;6.35;3.60;;;7.40;44.30;;;;;;2308799;54;21448;-72
2023/02/28 13:05:55;;;;;;;6.03;3.30;;;7.50;44.30;;;;;;2451706;53;22141;-72
2023/02/28 13:08:42;;;;;;;4.57;3.03;;;7.70;44.30;;;;;;2308479;54;21360;-72
2023/02/28 13:11:28;;;;;;;6.10;3.00;;;7.80;44.20;;;;;;2425235;53;21942;-72
2023/02/28 13:13:59;;;;;;;5.03;3.15;;;7.80;44.00;;;;;;2463942;53;21521;-72
2023/02/28 13:16:25;;;;;;;7.15;3.33;;;7.90;44.00;;;;;;2346359;53;21004;-73
2023/02/28 13:18:52;;;;;;;6.87;3.80;;;7.90;44.10;;;;;;2308812;54;21819;-72
2023/02/28 13:21:28;;;;;;;5.28;3.58;;;7.90;44.00;;;;;;2366220;53;21000;-72
2023/02/28 13:24:04;;;;;;;5.50;3.47;;;8.00;43.90;;;;;;2309323;54;20988;-72
2023/02/28 13:28:08;;;;;;;4.95;3.05;;;8.10;43.90;;;;;;2433332;53;21624;-73
2023/02/28 13:37:32;;;;;;;9.48;4.25;;;8.20;43.90;;;;;;2310790;53;21531;-73
2023/02/28 13:41:03;;;;;;;5.60;2.92;;;8.30;43.70;;;;;;2375752;53;21370;-73
2023/02/28 13:44:32;;;;;;;6.35;3.70;;;8.40;43.60;;;;;;2349411;53;21525;-73
2023/02/28 13:47:20;;;;;;;5.18;2.85;;;8.30;43.20;;;;;;2308963;54;20945;-73
2023/02/28 13:49:47;;;;;;;5.78;3.33;;;8.40;43.30;;;;;;2334081;53;20952;-73
2023/02/28 13:52:19;;;;;;;6.00;3.50;;;8.40;43.60;;;;;;2308663;54;21359;-73
2023/02/28 13:54:53;;;;;;;6.95;3.95;;;8.50;43.90;;;;;;2308933;54;20976;-73
2023/02/28 13:58:48;;;;;;;6.28;3.37;;;8.50;44.00;;;;;;2321408;53;21503;-73
2023/02/28 14:08:07;;;;;;;5.47;3.20;;;8.60;44.10;;;;;;2462047;53;21303;-74
2023/02/28 14:11:22;;;;;;;5.22;2.83;;;9.00;44.00;;;;;;2507023;53;21008;-73
2023/02/28 14:13:49;;;;;;;5.03;3.15;;;9.00;43.90;;;;;;2310090;53;21397;-73
2023/02/28 14:16:24;;;;;;;4.55;2.75;;;9.10;43.90;;;;;;2310994;54;20924;-73
2023/02/28 14:19:00;;;;;;;7.90;3.47;;;9.20;43.90;;;;;;2312929;54;21440;-73
2023/02/28 14:21:36;;;;;;;6.37;3.47;;;9.20;43.90;;;;;;2320281;53;20940;-73